createdAt,value
2022-09-28T00:00:41.983Z,99292.59
2022-09-28T00:03:09.279Z,99281.44
2022-09-28T00:05:35.728Z,99291.28
2022-09-28T00:08:02.077Z,99286.38
2022-09-28T00:10:28.517Z,99285.69
2022-09-28T00:12:58.197Z,99285.34
2022-09-28T00:15:24.692Z,99279.31
2022-09-28T00:17:51.174Z,99282.16
2022-09-28T00:20:18.064Z,99291.63
2022-09-28T00:22:44.423Z,99288.66
2022-09-28T00:25:10.856Z,99296.66
2022-09-28T00:27:37.184Z,99290.44
2022-09-28T00:30:04.326Z,99298.25
2022-09-28T00:32:30.762Z,99299.09
2022-09-28T00:34:57.173Z,99291.38
2022-09-28T00:37:23.620Z,99294.72
2022-09-28T00:39:50.251Z,99282.16
2022-09-28T00:42:20.400Z,99288.22
2022-09-28T00:44:49.707Z,99279.97
2022-09-28T00:47:40.965Z,99280.50
2022-09-28T00:50:18.091Z,99280.69
2022-09-28T00:52:47.466Z,99279.63
2022-09-28T00:55:18.846Z,99274.19
2022-09-28T00:57:51.793Z,99269.94
2022-09-28T01:00:18.917Z,99273.19
2022-09-28T01:02:45.903Z,99270.41
2022-09-28T01:05:12.928Z,99269.00
2022-09-28T01:07:40.886Z,99267.72
2022-09-28T01:10:08.055Z,99262.13
2022-09-28T01:12:34.396Z,99265.56
2022-09-28T01:15:01.896Z,99267.25
2022-09-28T01:17:53.346Z,99261.03
2022-09-28T01:20:54.076Z,99267.88
2022-09-28T01:23:48.555Z,99259.81
2022-09-28T01:26:33.570Z,99272.03
2022-09-28T01:29:06.085Z,99268.69
2022-09-28T01:31:36.365Z,99262.03
2022-09-28T01:34:12.216Z,99262.69
2022-09-28T01:36:55.183Z,99263.72
2022-09-28T01:39:31.259Z,99265.44
2022-09-28T01:42:03.170Z,99269.00
2022-09-28T01:44:39.661Z,99265.47
2022-09-28T01:47:10.917Z,99267.53
2022-09-28T01:49:42.294Z,99265.41
2022-09-28T01:52:20.866Z,99261.31
2022-09-28T01:54:53.554Z,99260.19
2022-09-28T01:57:32.353Z,99265.66
2022-09-28T02:00:10.762Z,99267.31
2022-09-28T02:02:44.794Z,99266.75
2022-09-28T02:05:20.063Z,99257.78
2022-09-28T02:08:15.911Z,99254.88
2022-09-28T02:11:09.180Z,99257.69
2022-09-28T02:13:40.588Z,99257.31
2022-09-28T02:16:16.234Z,99253.78
2022-09-28T02:18:44.851Z,99248.50
2022-09-28T02:21:16.031Z,99260.28
2022-09-28T02:23:52.955Z,99257.59
2022-09-28T02:26:23.184Z,99256.19
2022-09-28T02:28:49.742Z,99256.19
2022-09-28T02:31:16.229Z,99261.03
2022-09-28T02:33:44.416Z,99260.28
2022-09-28T02:36:11.350Z,99255.34
2022-09-28T02:38:38.298Z,99258.88
2022-09-28T02:41:17.098Z,99256.75
2022-09-28T02:43:55.612Z,99258.97
2022-09-28T02:46:32.676Z,99259.66
2022-09-28T02:49:21.346Z,99259.44
2022-09-28T02:52:16.617Z,99259.44
2022-09-28T02:55:18.509Z,99259.91
2022-09-28T02:58:09.830Z,99258.97
2022-09-28T03:00:49.413Z,99265.84
2022-09-28T03:03:24.056Z,99257.94
2022-09-28T03:06:00.796Z,99264.84
2022-09-28T03:08:43.055Z,99270.69
2022-09-28T03:11:15.073Z,99261.88
2022-09-28T03:13:42.226Z,99261.94
2022-09-28T03:16:09.970Z,99269.38
2022-09-28T03:18:36.484Z,99264.47
2022-09-28T03:21:04.985Z,99267.44
2022-09-28T03:23:31.654Z,99262.88
2022-09-28T03:25:58.412Z,99268.84
2022-09-28T03:28:25.780Z,99276.22
2022-09-28T03:30:52.488Z,99276.13
2022-09-28T03:33:19.880Z,99278.91
2022-09-28T03:35:48.158Z,99277.06
2022-09-28T03:38:14.796Z,99270.50
2022-09-28T03:40:41.188Z,99271.88
2022-09-28T03:43:07.664Z,99272.63
2022-09-28T03:45:34.167Z,99270.56
2022-09-28T03:48:00.712Z,99272.63
2022-09-28T03:50:27.282Z,99272.22
2022-09-28T03:52:54.234Z,99271.50
2022-09-28T03:55:20.591Z,99271.50
2022-09-28T03:57:53.890Z,99260.63
2022-09-28T04:00:20.308Z,99265.72
2022-09-28T04:02:46.669Z,99270.81
2022-09-28T04:05:13.143Z,99264.81
2022-09-28T04:07:39.525Z,99267.50
2022-09-28T04:10:06.354Z,99262.19
2022-09-28T04:12:32.710Z,99256.66
2022-09-28T04:14:59.063Z,99260.63
2022-09-28T04:17:25.449Z,99253.19
2022-09-28T04:19:51.816Z,99267.47
2022-09-28T04:22:18.177Z,99260.63
2022-09-28T04:24:44.632Z,99267.19
2022-09-28T04:27:29.421Z,99265.72
2022-09-28T04:29:55.796Z,99267.84
2022-09-28T04:32:22.391Z,99268.19
2022-09-28T04:34:48.767Z,99268.75
2022-09-28T04:37:15.147Z,99271.59
2022-09-28T04:39:44.983Z,99274.84
2022-09-28T04:42:13.955Z,99279.88
2022-09-28T04:44:40.338Z,99274.19
2022-09-28T04:47:06.740Z,99273.63
2022-09-28T04:49:35.387Z,99278.28
2022-09-28T04:52:01.793Z,99277.59
2022-09-28T04:54:28.161Z,99271.00
2022-09-28T04:56:55.363Z,99279.16
2022-09-28T04:59:21.739Z,99278.16
2022-09-28T05:01:48.229Z,99288.78
2022-09-28T05:04:14.997Z,99281.19
2022-09-28T05:06:41.440Z,99280.34
2022-09-28T05:09:09.314Z,99277.16
2022-09-28T05:11:35.807Z,99277.97
2022-09-28T05:14:02.164Z,99281.25
2022-09-28T05:16:30.128Z,99275.81
2022-09-28T05:18:56.913Z,99274.81
2022-09-28T05:21:25.445Z,99279.34
2022-09-28T05:23:52.557Z,99276.66
2022-09-28T05:26:19.199Z,99288.06
2022-09-28T05:28:46.079Z,99288.31
2022-09-28T05:31:12.467Z,99278.75
2022-09-28T05:33:38.929Z,99281.13
2022-09-28T05:36:08.538Z,99281.38
2022-09-28T05:38:34.916Z,99294.34
2022-09-28T05:41:06.256Z,99290.94
2022-09-28T05:43:33.110Z,99292.69
2022-09-28T05:46:00.368Z,99293.19
2022-09-28T05:48:27.593Z,99295.38
2022-09-28T05:50:54.233Z,99297.22
2022-09-28T05:53:20.730Z,99295.47
2022-09-28T05:55:49.077Z,99299.91
2022-09-28T05:58:16.056Z,99303.78
2022-09-28T06:00:43.077Z,99310.28
2022-09-28T06:03:13.983Z,99303.53
2022-09-28T06:05:41.031Z,99304.66
2022-09-28T06:08:10.606Z,99305.84
2022-09-28T06:10:37.134Z,99304.91
2022-09-28T06:13:03.599Z,99314.56
2022-09-28T06:15:32.271Z,99306.16
2022-09-28T06:18:07.414Z,99308.88
2022-09-28T06:20:36.143Z,99312.97
2022-09-28T06:23:02.892Z,99310.28
2022-09-28T06:25:29.444Z,99310.25
2022-09-28T06:28:13.118Z,99314.44
2022-09-28T06:30:41.163Z,99324.75
2022-09-28T06:33:11.167Z,99320.53
2022-09-28T06:35:37.564Z,99326.06
2022-09-28T06:38:04.472Z,99328.53
2022-09-28T06:40:31.430Z,99322.31
2022-09-28T06:43:14.809Z,99326.13
2022-09-28T06:45:42.675Z,99325.78
2022-09-28T06:48:11.054Z,99328.53
2022-09-28T06:50:40.499Z,99329.94
2022-09-28T06:53:09.505Z,99331.28
2022-09-28T06:55:39.612Z,99328.78
2022-09-28T06:58:10.001Z,99322.00
2022-09-28T07:00:38.137Z,99329.53
2022-09-28T07:03:11.743Z,99324.91
2022-09-28T07:05:42.322Z,99326.09
2022-09-28T07:08:09.127Z,99333.44
2022-09-28T07:10:35.536Z,99341.22
2022-09-28T07:13:05.442Z,99340.78
2022-09-28T07:15:32.465Z,99346.72
2022-09-28T07:18:03.133Z,99355.72
2022-09-28T07:20:30.204Z,99350.63
2022-09-28T07:23:09.253Z,99351.09
2022-09-28T07:25:38.140Z,99356.78
2022-09-28T07:28:04.916Z,99360.25
2022-09-28T07:30:33.982Z,99365.63
2022-09-28T07:33:01.547Z,99360.03
2022-09-28T07:35:28.116Z,99374.16
2022-09-28T07:38:07.864Z,99374.72
2022-09-28T07:40:54.753Z,99375.34
2022-09-28T07:43:22.201Z,99380.56
2022-09-28T07:45:52.866Z,99379.44
2022-09-28T07:48:19.873Z,99380.25
2022-09-28T07:50:51.757Z,99385.81
2022-09-28T07:53:19.321Z,99394.69
2022-09-28T07:55:56.210Z,99382.66
2022-09-28T07:58:22.700Z,99383.44
2022-09-28T08:00:50.336Z,99391.88
2022-09-28T08:03:18.601Z,99390.81
2022-09-28T08:05:46.859Z,99385.59
2022-09-28T08:08:14.232Z,99389.97
2022-09-28T08:10:46.911Z,99388.91
2022-09-28T08:13:15.181Z,99397.00
2022-09-28T08:15:42.654Z,99399.22
2022-09-28T08:18:09.272Z,99395.78
2022-09-28T08:20:54.339Z,99396.31
2022-09-28T08:23:20.758Z,99395.38
2022-09-28T08:25:52.519Z,99387.97
2022-09-28T08:28:18.949Z,99392.66
2022-09-28T08:30:46.655Z,99391.75
2022-09-28T08:33:14.435Z,99388.13
2022-09-28T08:35:41.801Z,99403.09
2022-09-28T08:38:09.004Z,99395.84
2022-09-28T08:40:47.789Z,99394.41
2022-09-28T08:43:41.676Z,99400.59
2022-09-28T08:46:11.328Z,99403.97
2022-09-28T08:49:13.539Z,99394.25
2022-09-28T08:51:55.176Z,99397.53
2022-09-28T08:54:36.641Z,99403.34
2022-09-28T08:57:16.149Z,99403.69
2022-09-28T08:59:56.047Z,99401.91
2022-09-28T09:02:33.647Z,99401.19
2022-09-28T09:05:03.737Z,99400.59
2022-09-28T09:07:57.719Z,99402.91
2022-09-28T09:10:50.625Z,99406.00
2022-09-28T09:13:35.861Z,99404.16
2022-09-28T09:16:44.075Z,99402.97
2022-09-28T09:19:51.139Z,99417.06
2022-09-28T09:22:28.166Z,99409.38
2022-09-28T09:25:25.463Z,99405.03
2022-09-28T09:28:09.747Z,99409.59
2022-09-28T09:30:50.055Z,99416.44
2022-09-28T09:33:46.145Z,99419.97
2022-09-28T09:36:25.462Z,99425.38
2022-09-28T09:39:05.408Z,99434.31
2022-09-28T09:41:37.844Z,99420.38
2022-09-28T09:44:31.715Z,99427.38
2022-09-28T09:47:14.842Z,99422.91
2022-09-28T09:49:50.174Z,99428.38
2022-09-28T09:52:25.556Z,99427.13
2022-09-28T09:55:00.296Z,99433.38
2022-09-28T09:57:32.114Z,99426.63
2022-09-28T10:00:01.849Z,99434.75
2022-09-28T10:02:31.588Z,99423.41
2022-09-28T10:05:05.358Z,99430.34
2022-09-28T10:08:00.087Z,99421.06
2022-09-28T10:10:28.564Z,99434.81
2022-09-28T10:12:56.368Z,99428.53
2022-09-28T10:15:28.639Z,99430.72
2022-09-28T10:17:56.954Z,99431.78
2022-09-28T10:20:25.542Z,99425.34
2022-09-28T10:22:56.667Z,99430.47
2022-09-28T10:25:24.246Z,99433.63
2022-09-28T10:27:52.545Z,99438.13
2022-09-28T10:30:24.250Z,99435.16
2022-09-28T10:32:59.224Z,99435.69
2022-09-28T10:35:29.506Z,99442.03
2022-09-28T10:38:04.441Z,99437.00
2022-09-28T10:40:46.409Z,99436.28
2022-09-28T10:43:23.948Z,99440.69
2022-09-28T10:46:12.168Z,99432.38
2022-09-28T10:48:39.818Z,99433.44
2022-09-28T10:51:07.708Z,99444.13
2022-09-28T10:53:38.483Z,99435.56
2022-09-28T10:56:08.686Z,99440.50
2022-09-28T10:58:40.619Z,99437.72
2022-09-28T11:01:19.243Z,99430.13
2022-09-28T11:03:54.583Z,99442.91
2022-09-28T11:06:27.495Z,99444.16
2022-09-28T11:09:00.412Z,99441.50
2022-09-28T11:11:27.268Z,99443.69
2022-09-28T11:13:56.303Z,99440.38
2022-09-28T11:16:28.747Z,99442.66
2022-09-28T11:18:57.454Z,99431.38
2022-09-28T11:21:32.032Z,99420.09
2022-09-28T11:24:19.954Z,99427.88
2022-09-28T11:26:50.117Z,99439.03
2022-09-28T11:29:22.628Z,99439.38
2022-09-28T11:31:49.518Z,99433.44
2022-09-28T11:34:31.116Z,99437.25
2022-09-28T11:37:35.159Z,99441.34
2022-09-28T11:40:20.139Z,99432.53
2022-09-28T11:43:13.283Z,99428.56
2022-09-28T11:46:14.595Z,99419.25
2022-09-28T11:48:46.234Z,99419.16
2022-09-28T11:51:21.680Z,99420.66
2022-09-28T11:54:00.580Z,99423.97
2022-09-28T11:56:38.491Z,99419.34
2022-09-28T11:59:12.514Z,99425.09
2022-09-28T12:02:00.641Z,99426.13
2022-09-28T12:04:36.834Z,99424.50
2022-09-28T12:07:23.180Z,99430.19
2022-09-28T12:09:59.295Z,99426.84
2022-09-28T12:12:41.310Z,99420.38
2022-09-28T12:15:25.689Z,99420.56
2022-09-28T12:18:07.176Z,99431.16
2022-09-28T12:20:39.041Z,99426.91
2022-09-28T12:23:14.075Z,99428.44
2022-09-28T12:25:46.689Z,99422.50
2022-09-28T12:28:22.649Z,99426.78
2022-09-28T12:30:49.897Z,99418.94
2022-09-28T12:33:16.943Z,99420.31
2022-09-28T12:36:04.658Z,99424.31
2022-09-28T12:39:08.367Z,99426.00
2022-09-28T12:42:00.031Z,99426.63
2022-09-28T12:45:08.801Z,99424.09
2022-09-28T12:47:59.124Z,99424.22
2022-09-28T12:50:41.615Z,99421.19
2022-09-28T12:53:31.889Z,99425.81
2022-09-28T12:56:21.535Z,99437.66
2022-09-28T12:59:08.032Z,99433.31
2022-09-28T13:01:53.870Z,99436.63
2022-09-28T13:04:39.131Z,99439.34
2022-09-28T13:07:27.878Z,99436.66
2022-09-28T13:10:06.542Z,99437.47
2022-09-28T13:13:00.456Z,99439.03
2022-09-28T13:15:40.693Z,99450.38
2022-09-28T13:18:26.163Z,99448.50
2022-09-28T13:21:09.675Z,99447.44
2022-09-28T13:23:43.752Z,99448.00
2022-09-28T13:26:17.276Z,99453.47
2022-09-28T13:28:46.999Z,99453.25
2022-09-28T13:31:20.308Z,99457.75
2022-09-28T13:33:49.215Z,99458.44
2022-09-28T13:36:36.505Z,99459.13
2022-09-28T13:39:03.280Z,99446.28
2022-09-28T13:41:38.906Z,99452.38
2022-09-28T13:44:11.607Z,99447.88
2022-09-28T13:47:06.223Z,99449.19
2022-09-28T13:49:56.472Z,99451.78
2022-09-28T13:52:51.101Z,99449.50
2022-09-28T13:55:49.772Z,99459.75
2022-09-28T13:58:22.126Z,99458.66
2022-09-28T14:00:53.440Z,99465.72
2022-09-28T14:03:38.628Z,99466.53
2022-09-28T14:06:23.939Z,99468.19
2022-09-28T14:09:13.286Z,99472.28
2022-09-28T14:11:42.434Z,99470.84
2022-09-28T14:14:11.252Z,99477.91
2022-09-28T14:16:39.410Z,99480.22
2022-09-28T14:19:12.406Z,99480.84
2022-09-28T14:21:58.128Z,99492.97
2022-09-28T14:24:33.537Z,99488.19
2022-09-28T14:27:37.369Z,99493.16
2022-09-28T14:30:12.803Z,99488.59
2022-09-28T14:32:59.458Z,99492.97
2022-09-28T14:35:31.392Z,99490.25
2022-09-28T14:38:22.552Z,99490.03
2022-09-28T14:41:15.299Z,99484.63
2022-09-28T14:43:44.772Z,99490.25
2022-09-28T14:46:11.136Z,99486.72
2022-09-28T14:48:47.826Z,99491.09
2022-09-28T14:51:26.471Z,99491.09
2022-09-28T14:53:54.728Z,99495.25
2022-09-28T14:56:21.896Z,99490.47
2022-09-28T14:58:55.959Z,99493.78
2022-09-28T15:01:24.753Z,99494.44
2022-09-28T15:04:01.477Z,99499.84
2022-09-28T15:06:45.394Z,99505.25
2022-09-28T15:09:39.053Z,99511.31
2022-09-28T15:12:14.845Z,99514.22
2022-09-28T15:14:47.772Z,99515.47
2022-09-28T15:17:41.899Z,99512.56
2022-09-28T15:20:20.961Z,99518.38
2022-09-28T15:22:49.470Z,99520.25
2022-09-28T15:25:21.685Z,99516.94
2022-09-28T15:27:57.050Z,99522.38
2022-09-28T15:30:31.610Z,99529.03
2022-09-28T15:33:26.506Z,99525.06
2022-09-28T15:36:02.909Z,99532.78
2022-09-28T15:38:32.345Z,99536.31
2022-09-28T15:41:02.768Z,99541.31
2022-09-28T15:43:33.032Z,99539.00
2022-09-28T15:46:18.292Z,99535.69
2022-09-28T15:48:55.108Z,99538.19
2022-09-28T15:51:23.635Z,99534.84
2022-09-28T15:54:04.242Z,99534.81
2022-09-28T15:56:31.198Z,99535.91
2022-09-28T15:59:15.671Z,99541.94
2022-09-28T16:01:45.686Z,99542.56
2022-09-28T16:04:36.396Z,99546.72
2022-09-28T16:07:30.823Z,99543.97
2022-09-28T16:10:02.181Z,99542.09
2022-09-28T16:12:37.906Z,99541.84
2022-09-28T16:15:12.272Z,99540.63
2022-09-28T16:17:38.692Z,99537.69
2022-09-28T16:20:26.613Z,99545.38
2022-09-28T16:22:53.659Z,99535.38
2022-09-28T16:25:25.967Z,99545.97
2022-09-28T16:27:55.047Z,99533.03
2022-09-28T16:30:25.356Z,99539.84
2022-09-28T16:32:56.461Z,99543.41
2022-09-28T16:35:43.123Z,99537.19
2022-09-28T16:38:13.715Z,99530.28
2022-09-28T16:40:42.631Z,99537.78
2022-09-28T16:43:26.910Z,99543.63
2022-09-28T16:45:58.317Z,99544.72
2022-09-28T16:48:30.838Z,99551.59
2022-09-28T16:50:58.256Z,99544.38
2022-09-28T16:53:44.429Z,99550.53
2022-09-28T16:56:12.424Z,99554.06
2022-09-28T16:58:39.040Z,99551.19
2022-09-28T17:01:09.668Z,99552.44
2022-09-28T17:03:36.178Z,99554.91
2022-09-28T17:06:06.193Z,99554.41
2022-09-28T17:08:33.805Z,99561.88
2022-09-28T17:11:23.991Z,99563.31
2022-09-28T17:13:50.531Z,99564.09
2022-09-28T17:16:32.688Z,99575.13
2022-09-28T17:19:21.214Z,99568.44
2022-09-28T17:21:48.146Z,99575.53
2022-09-28T17:24:14.568Z,99576.00
2022-09-28T17:26:43.784Z,99581.16
2022-09-28T17:29:14.392Z,99583.41
2022-09-28T17:31:42.689Z,99583.16
2022-09-28T17:34:10.030Z,99581.47
2022-09-28T17:36:36.505Z,99578.31
2022-09-28T17:39:04.191Z,99583.41
2022-09-28T17:41:30.598Z,99585.66
2022-09-28T17:43:57.160Z,99590.59
2022-09-28T17:46:38.674Z,99594.13
2022-09-28T17:49:07.638Z,99588.09
2022-09-28T17:51:37.532Z,99585.75
2022-09-28T17:54:06.808Z,99587.16
2022-09-28T17:56:33.687Z,99589.50
2022-09-28T17:59:03.128Z,99598.41
2022-09-28T18:01:35.702Z,99592.59
2022-09-28T18:04:04.907Z,99590.72
2022-09-28T18:06:35.052Z,99589.84
2022-09-28T18:09:03.101Z,99588.47
2022-09-28T18:11:31.057Z,99592.16
2022-09-28T18:13:57.428Z,99589.00
2022-09-28T18:16:24.004Z,99592.16
2022-09-28T18:18:50.511Z,99595.88
2022-09-28T18:21:16.878Z,99597.72
2022-09-28T18:23:43.232Z,99602.84
2022-09-28T18:26:14.033Z,99604.19
2022-09-28T18:28:40.771Z,99606.94
2022-09-28T18:31:08.956Z,99606.75
2022-09-28T18:33:35.459Z,99598.16
2022-09-28T18:36:02.290Z,99611.09
2022-09-28T18:38:28.645Z,99613.75
2022-09-28T18:40:56.394Z,99618.94
2022-09-28T18:43:23.274Z,99608.09
2022-09-28T18:45:49.698Z,99610.53
2022-09-28T18:48:16.178Z,99610.44
2022-09-28T18:50:42.707Z,99610.56
2022-09-28T18:53:11.924Z,99615.31
2022-09-28T18:55:39.961Z,99615.16
2022-09-28T18:58:07.904Z,99613.19
2022-09-28T19:00:36.841Z,99619.44
2022-09-28T19:03:03.439Z,99615.25
2022-09-28T19:05:29.960Z,99614.97
2022-09-28T19:07:56.638Z,99617.88
2022-09-28T19:10:23.094Z,99624.22
2022-09-28T19:12:52.049Z,99624.91
2022-09-28T19:15:20.558Z,99622.13
2022-09-28T19:17:47.854Z,99622.97
2022-09-28T19:20:14.309Z,99625.75
2022-09-28T19:22:40.685Z,99627.50
2022-09-28T19:25:08.282Z,99629.56
2022-09-28T19:27:34.659Z,99627.06
2022-09-28T19:30:01.056Z,99626.59
2022-09-28T19:32:28.986Z,99628.28
2022-09-28T19:34:56.102Z,99626.59
2022-09-28T19:37:22.511Z,99628.56
2022-09-28T19:39:48.959Z,99634.69
2022-09-28T19:42:15.343Z,99633.00
2022-09-28T19:44:41.815Z,99639.44
2022-09-28T19:47:09.977Z,99642.81
2022-09-28T19:49:38.660Z,99646.31
2022-09-28T19:52:15.613Z,99637.25
2022-09-28T19:54:54.278Z,99642.53
2022-09-28T19:57:20.707Z,99638.81
2022-09-28T19:59:52.012Z,99644.66
2022-09-28T20:02:19.091Z,99644.59
2022-09-28T20:04:45.602Z,99644.19
2022-09-28T20:07:12.006Z,99647.00
2022-09-28T20:09:38.487Z,99648.66
2022-09-28T20:12:04.996Z,99649.41
2022-09-28T20:14:34.294Z,99638.53
2022-09-28T20:17:04.594Z,99644.84
2022-09-28T20:19:30.955Z,99649.88
2022-09-28T20:21:59.378Z,99647.75
2022-09-28T20:24:25.921Z,99651.94
2022-09-28T20:26:52.535Z,99654.81
2022-09-28T20:29:18.941Z,99646.72
2022-09-28T20:31:45.629Z,99656.28
2022-09-28T20:34:12.189Z,99655.81
2022-09-28T20:36:38.830Z,99652.09
2022-09-28T20:39:05.174Z,99646.34
2022-09-28T20:41:35.447Z,99648.22
2022-09-28T20:44:05.370Z,99649.97
2022-09-28T20:46:32.872Z,99651.78
2022-09-28T20:48:59.660Z,99652.28
2022-09-28T20:51:26.502Z,99656.38
2022-09-28T20:53:55.179Z,99648.16
2022-09-28T20:56:26.549Z,99653.31
2022-09-28T20:58:53.975Z,99661.66
2022-09-28T21:01:25.734Z,99668.25
2022-09-28T21:03:54.800Z,99653.00
2022-09-28T21:06:23.610Z,99661.53
2022-09-28T21:08:50.394Z,99658.16
2022-09-28T21:11:18.779Z,99657.81
2022-09-28T21:13:45.695Z,99664.13
2022-09-28T21:16:14.475Z,99661.22
2022-09-28T21:18:41.854Z,99661.91
2022-09-28T21:21:12.435Z,99661.91
2022-09-28T21:23:39.298Z,99670.19
2022-09-28T21:26:15.818Z,99670.84
2022-09-28T21:28:42.341Z,99675.66
2022-09-28T21:31:11.207Z,99671.19
2022-09-28T21:33:38.334Z,99672.41
2022-09-28T21:36:07.012Z,99670.50
2022-09-28T21:38:34.070Z,99665.91
2022-09-28T21:41:01.869Z,99670.91
2022-09-28T21:43:29.818Z,99675.16
2022-09-28T21:45:57.594Z,99678.50
2022-09-28T21:48:25.869Z,99679.03
2022-09-28T21:51:03.175Z,99675.31
2022-09-28T21:53:32.468Z,99681.53
2022-09-28T21:56:00.183Z,99682.81
2022-09-28T21:58:29.659Z,99685.03
2022-09-28T22:01:07.018Z,99687.06
2022-09-28T22:03:35.368Z,99689.94
2022-09-28T22:06:02.913Z,99685.25
2022-09-28T22:08:29.353Z,99684.88
2022-09-28T22:11:03.679Z,99686.44
2022-09-28T22:13:31.861Z,99691.53
2022-09-28T22:15:58.858Z,99688.38
2022-09-28T22:18:26.964Z,99693.78
2022-09-28T22:21:00.846Z,99684.06
2022-09-28T22:23:28.740Z,99698.56
2022-09-28T22:26:07.089Z,99695.88
2022-09-28T22:28:34.227Z,99700.16
2022-09-28T22:31:00.631Z,99702.16
2022-09-28T22:33:27.575Z,99704.84
2022-09-28T22:35:54.940Z,99705.94
2022-09-28T22:38:23.955Z,99711.00
2022-09-28T22:40:52.454Z,99711.53
2022-09-28T22:43:19.020Z,99708.38
2022-09-28T22:45:45.770Z,99702.06
2022-09-28T22:48:13.096Z,99706.19
2022-09-28T22:50:39.548Z,99706.25
2022-09-28T22:53:06.148Z,99700.88
2022-09-28T22:55:35.399Z,99705.09
2022-09-28T22:58:01.887Z,99710.56
2022-09-28T23:00:28.478Z,99711.69
2022-09-28T23:02:54.856Z,99706.69
2022-09-28T23:05:21.314Z,99711.44
2022-09-28T23:07:47.742Z,99706.56
2022-09-28T23:10:14.180Z,99704.94
2022-09-28T23:12:40.570Z,99702.16
2022-09-28T23:15:07.565Z,99705.53
2022-09-28T23:17:34.790Z,99715.75
2022-09-28T23:20:01.489Z,99704.94
2022-09-28T23:22:27.842Z,99702.50
2022-09-28T23:24:54.198Z,99703.44
2022-09-28T23:27:20.705Z,99704.94
2022-09-28T23:29:48.753Z,99694.88
2022-09-28T23:32:19.044Z,99701.56
2022-09-28T23:34:45.579Z,99701.34
2022-09-28T23:37:11.992Z,99702.91
2022-09-28T23:39:38.356Z,99703.00
2022-09-28T23:42:04.745Z,99707.88
2022-09-28T23:44:33.716Z,99711.09
2022-09-28T23:47:00.358Z,99707.59
2022-09-28T23:49:26.748Z,99707.44
2022-09-28T23:51:53.395Z,99715.34
2022-09-28T23:54:19.755Z,99707.31
2022-09-28T23:56:46.142Z,99702.84
2022-09-28T23:59:12.501Z,99708.03
